M.v.golden Bull — VRKC7 — position and weather

sailwx.info

Track history (hours):
 
Tides and Currents Weather Stations Pressure Air Temp Water Temp Dewpoint Dewpoint Depression Visibility Wind Speed Wind Dir Waves Ship Positions

M.v.golden Bull

Last reported at 2018-Jan-19 03:00 UTC. Time now 2018-Jan-20 21:05 UTC.
Position N 35°57' W 005°42'.

Length 225 m; draft 7.6 m.

Type: Ship. MMSI: 477700600.

Date/timePositionNaut miles runAvg speedWind from/ knotsBaromVisibWave heightAir tempDewpointWater temp
2018-Jan-19 03:00N 35°57' W 005°42'714.5
2018-Jan-19 02:30N 35°58' W 005°33'713.7
2018-Jan-19 02:00N 36°00' W 005°25'611.8
2018-Jan-19 01:30N 36°06' W 005°22'2 3.1
2018-Jan-19 00:59N 36°07' W 005°22'0 0.1
2018-Jan-19 00:29N 36°07' W 005°22'0 0.1
2018-Jan-18 23:59N 36°07' W 005°22'0 0.2
2018-Jan-18 23:29N 36°07' W 005°22'0 0.0
2018-Jan-18 22:59N 36°07' W 005°22'0 0.0
2018-Jan-18 22:29N 36°07' W 005°22'0 0.0
2018-Jan-18 21:59N 36°07' W 005°22'0 0.1
2018-Jan-18 21:29N 36°07' W 005°22'0 0.1
2018-Jan-18 20:59N 36°07' W 005°22'0 0.1
2018-Jan-18 20:29N 36°07' W 005°22'0 0.1
2018-Jan-18 19:59N 36°07' W 005°22'0 0.0
2018-Jan-18 19:26N 36°07' W 005°22'0 0.1
2018-Jan-18 18:59N 36°07' W 005°22'0 0.2
2018-Jan-18 18:29N 36°07' W 005°22'0 0.0
2018-Jan-18 17:59N 36°07' W 005°22'0 0.0
2018-Jan-18 17:29N 36°07' W 005°22'0 0.1
2018-Jan-18 16:59N 36°07' W 005°22'0 0.0
2018-Jan-18 16:29N 36°07' W 005°22'0 0.1
2018-Jan-18 15:59N 36°07' W 005°22'0 0.1
2018-Jan-18 15:30N 36°07' W 005°22'0 1.0
2018-Jan-18 15:00N 36°07' W 005°23'2 4.7
2018-Jan-18 14:30N 36°05' W 005°21'3 6.6
2018-Jan-18 14:00N 36°05' W 005°17'4 8.7
2018-Jan-18 13:30N 36°07' W 005°12'3 5.4
2018-Jan-18 13:00N 36°07' W 005°09'1 1.9
2018-Jan-18 12:30N 36°06' W 005°08'1 1.9
2018-Jan-18 12:00N 36°06' W 005°10'4 8.0
2018-Jan-18 11:30N 36°07' W 005°14'0 0.5
2018-Jan-18 11:00N 36°07' W 005°14'1 2.5
2018-Jan-18 10:30N 36°06' W 005°13'1 2.4
2018-Jan-18 10:00N 36°06' W 005°11'0 0.5
2018-Jan-18 09:30N 36°06' W 005°11'3 6.4
2018-Jan-18 09:00N 36°06' W 005°15'1 1.4
2018-Jan-18 08:30N 36°06' W 005°15'1 1.5
2018-Jan-18 08:00N 36°05' W 005°14'1 1.4
2018-Jan-18 07:30N 36°05' W 005°13'1 1.1
2018-Jan-18 07:00N 36°05' W 005°12'0 1.0
2018-Jan-18 06:30N 36°05' W 005°12'0 0.8
2018-Jan-18 06:00N 36°05' W 005°11'0 0.4
2018-Jan-18 05:30N 36°05' W 005°11'0 0.2
2018-Jan-18 05:00N 36°05' W 005°11'0 0.6
2018-Jan-18 04:30N 36°05' W 005°11'2 4.6
2018-Jan-18 04:00N 36°04' W 005°08'511.1
2018-Jan-18 03:30N 36°04' W 005°01'611.6
2018-Jan-18 03:00N 36°05' W 004°54'612.3
2018-Jan-18 02:30N 36°05' W 004°46'712.9
2018-Jan-18 02:00N 36°06' W 004°38'1212.5
2018-Jan-18 01:04N 36°07' W 004°24'  
2018-Jan-12 14:58N 40°29' E 017°13'0 0.1
2018-Jan-12 14:28N 40°29' E 017°13'0 0.0
2018-Jan-12 13:58N 40°29' E 017°13'0 0.0
2018-Jan-12 13:28N 40°29' E 017°13'0 0.0
2018-Jan-12 12:58N 40°29' E 017°13'0 0.0
2018-Jan-12 12:28N 40°29' E 017°13'0 0.0
2018-Jan-12 11:58N 40°29' E 017°13'0 0.0
2018-Jan-12 11:28N 40°29' E 017°13'0 0.0
2018-Jan-12 10:58N 40°29' E 017°13'0 0.0
2018-Jan-12 10:28N 40°29' E 017°13'0 0.0
2018-Jan-12 09:58N 40°29' E 017°13'0 0.0
2018-Jan-12 09:28N 40°29' E 017°13'0 0.0
2018-Jan-12 08:58N 40°29' E 017°13'0 0.0
2018-Jan-12 08:28N 40°29' E 017°13'0 0.0
2018-Jan-12 07:58N 40°29' E 017°13'0 0.0
2018-Jan-12 07:28N 40°29' E 017°13'0 0.0
2018-Jan-12 06:58N 40°29' E 017°13'0 0.0
2018-Jan-12 06:28N 40°29' E 017°13'0 0.0
2018-Jan-12 05:58N 40°29' E 017°13'0 0.0
2018-Jan-12 05:28N 40°29' E 017°13'0 0.0
2018-Jan-12 04:58N 40°29' E 017°13'0 0.0
2018-Jan-12 04:28N 40°29' E 017°13'0 0.0
2018-Jan-12 03:58N 40°29' E 017°13'0 0.0
2018-Jan-12 03:28N 40°29' E 017°13'0 0.0
2018-Jan-12 02:58N 40°29' E 017°13'0 0.0
2018-Jan-12 02:28N 40°29' E 017°13'0 0.0
2018-Jan-12 01:58N 40°29' E 017°13'0 0.0
2018-Jan-12 01:28N 40°29' E 017°13'0 0.0
2018-Jan-12 00:58N 40°29' E 017°13'0 0.0
2018-Jan-12 00:28N 40°29' E 017°13'0 0.0
2018-Jan-11 23:58N 40°29' E 017°13'0 0.0
2018-Jan-11 23:28N 40°29' E 017°13'0 0.0
2018-Jan-11 22:58N 40°29' E 017°13'0 0.0
2018-Jan-11 22:28N 40°29' E 017°13'0 0.0
2018-Jan-11 21:58N 40°29' E 017°13'0 0.0
2018-Jan-11 21:28N 40°29' E 017°13'0 0.0
2018-Jan-11 20:58N 40°29' E 017°13'0 0.0
2018-Jan-11 20:28N 40°29' E 017°13'0 0.0
2018-Jan-11 19:58N 40°29' E 017°13'0 0.0
2018-Jan-11 19:28N 40°29' E 017°13'0 0.0
2018-Jan-11 18:58N 40°29' E 017°13'0 0.0
2018-Jan-11 18:28N 40°29' E 017°13'0 0.0
2018-Jan-11 17:58N 40°29' E 017°13'0 0.0
2018-Jan-11 17:28N 40°29' E 017°13'0 0.0
2018-Jan-11 16:40N 40°29' E 017°13'0 0.0
2018-Jan-11 16:28N 40°29' E 017°13'0 0.0
2018-Jan-11 15:58N 40°29' E 017°13'0 0.0
2018-Jan-11 15:28N 40°29' E 017°13'0 0.0
2018-Jan-11 14:58N 40°29' E 017°13'0 0.0
2018-Jan-11 14:28N 40°29' E 017°13'0 0.0
2018-Jan-11 13:58N 40°29' E 017°13'0 0.0
2018-Jan-11 13:28N 40°29' E 017°13'0 0.0
2018-Jan-11 12:58N 40°29' E 017°13'0 0.0
2018-Jan-11 12:28N 40°29' E 017°13'0 0.0
2018-Jan-11 11:55N 40°29' E 017°13'0 0.0
2018-Jan-11 11:28N 40°29' E 017°13'0 0.0
2018-Jan-11 10:58N 40°29' E 017°13'0 0.0
2018-Jan-11 10:28N 40°29' E 017°13'0 0.0
2018-Jan-11 09:58N 40°29' E 017°13'0 0.0
2018-Jan-11 09:28N 40°29' E 017°13'0 0.0
2018-Jan-11 08:58N 40°29' E 017°13'0 0.0
2018-Jan-11 08:28N 40°29' E 017°13'0 0.0
2018-Jan-11 07:58N 40°29' E 017°13'0 0.0
2018-Jan-11 07:28N 40°29' E 017°13'0 0.0
2018-Jan-11 06:58N 40°29' E 017°13'0 0.0
2018-Jan-11 06:28N 40°29' E 017°13'0 0.0
2018-Jan-11 05:58N 40°29' E 017°13'0 0.0
2018-Jan-11 05:28N 40°29' E 017°13'0 0.0
2018-Jan-11 04:58N 40°29' E 017°13'0 0.0
2018-Jan-11 04:28N 40°29' E 017°13'0 0.0
2018-Jan-11 03:58N 40°29' E 017°13'0 0.0
2018-Jan-11 03:28N 40°29' E 017°13'0 0.0
2018-Jan-11 02:58N 40°29' E 017°13'0 0.0
2018-Jan-11 02:28N 40°29' E 017°13'0 0.0
2018-Jan-11 01:58N 40°29' E 017°13'0 0.0
2018-Jan-11 01:28N 40°29' E 017°13'0 0.0
2018-Jan-11 00:58N 40°29' E 017°13'0 0.0
2018-Jan-11 00:28N 40°29' E 017°13'0 0.0
2018-Jan-10 23:58N 40°29' E 017°13'0 0.0
2018-Jan-10 23:28N 40°29' E 017°13'0 0.0
2018-Jan-10 22:58N 40°29' E 017°13'0 0.0
2018-Jan-10 22:28N 40°29' E 017°13'0 0.0
2018-Jan-10 21:58N 40°29' E 017°13'0 0.0
2018-Jan-10 21:25N 40°29' E 017°13'0 0.0
2018-Jan-10 20:58N 40°29' E 017°13'0 0.0
2018-Jan-10 20:28N 40°29' E 017°13'0 0.0
2018-Jan-10 19:58N 40°29' E 017°13'0 0.0
2018-Jan-10 19:28N 40°29' E 017°13'0 0.0
2018-Jan-10 18:58N 40°29' E 017°13'0 0.0
2018-Jan-10 18:28N 40°29' E 017°13'0 0.0
2018-Jan-10 17:58N 40°29' E 017°13'0 0.0
2018-Jan-10 17:28N 40°29' E 017°13'0 0.0
2018-Jan-10 16:58N 40°29' E 017°13'0 0.0
2018-Jan-10 16:28N 40°29' E 017°13'0 0.0
2018-Jan-10 15:58N 40°29' E 017°13'0 0.0
2018-Jan-10 15:28N 40°29' E 017°13'0 0.0
2018-Jan-10 14:58N 40°29' E 017°13'0 0.0
2018-Jan-10 14:28N 40°29' E 017°13'0 0.0
2018-Jan-10 13:58N 40°29' E 017°13'0 0.0
2018-Jan-10 13:28N 40°29' E 017°13'0 0.0
2018-Jan-10 12:58N 40°29' E 017°13'0 0.0
2018-Jan-10 12:28N 40°29' E 017°13'0 0.0
2018-Jan-10 11:58N 40°29' E 017°13'0 0.0
2018-Jan-10 11:28N 40°29' E 017°13'0 0.0
2018-Jan-10 10:58N 40°29' E 017°13'0 0.1
2018-Jan-10 10:28N 40°29' E 017°13'0 0.2
2018-Jan-10 09:58N 40°29' E 017°13'0 0.0
2018-Jan-10 09:28N 40°29' E 017°13'0 0.0
2018-Jan-10 08:58N 40°29' E 017°13'0 0.0
2018-Jan-10 08:28N 40°29' E 017°13'0 0.0
2018-Jan-10 07:58N 40°29' E 017°13'0 0.0
2018-Jan-10 07:28N 40°29' E 017°13'0 0.0
2018-Jan-10 06:58N 40°29' E 017°13'0 0.0
2018-Jan-10 06:28N 40°29' E 017°13'0 0.0
2018-Jan-10 05:58N 40°29' E 017°13'0 0.0
2018-Jan-10 05:28N 40°29' E 017°13'0 0.0
2018-Jan-10 04:58N 40°29' E 017°13'0 0.0
2018-Jan-10 04:28N 40°29' E 017°13'0 0.0
2018-Jan-10 03:58N 40°29' E 017°13'0 0.0
2018-Jan-10 03:25N 40°29' E 017°13'0 0.0
2018-Jan-10 02:58N 40°29' E 017°13'0 0.0
2018-Jan-10 02:28N 40°29' E 017°13'0 0.0
2018-Jan-10 01:58N 40°29' E 017°13'0 0.0
2018-Jan-10 01:28N 40°29' E 017°13'0 0.0
2018-Jan-10 00:58N 40°29' E 017°13'0 0.0
2018-Jan-10 00:28N 40°29' E 017°13'0 0.0
2018-Jan-09 23:58N 40°29' E 017°13'0 0.0
2018-Jan-09 23:28N 40°29' E 017°13'0 0.0
2018-Jan-09 22:58N 40°29' E 017°13'0 0.0
2018-Jan-09 22:28N 40°29' E 017°13'0 0.0
2018-Jan-09 21:58N 40°29' E 017°13'0 0.0
2018-Jan-09 21:28N 40°29' E 017°13'0 0.0
2018-Jan-09 20:58N 40°29' E 017°13'0 0.0
2018-Jan-09 20:19N 40°29' E 017°13'0 0.0
2018-Jan-09 19:58N 40°29' E 017°13'0 0.0
2018-Jan-09 19:28N 40°29' E 017°13'0 0.0
2018-Jan-09 18:58N 40°29' E 017°13'0 0.0
2018-Jan-09 18:28N 40°29' E 017°13'0 0.0
2018-Jan-09 17:58N 40°29' E 017°13'0 0.0
2018-Jan-09 17:28N 40°29' E 017°13'0 0.0
2018-Jan-09 16:58N 40°29' E 017°13'0 0.0
2018-Jan-09 16:28N 40°29' E 017°13'0 0.0
2018-Jan-09 15:52N 40°29' E 017°13'0 0.0
2018-Jan-09 15:28N 40°29' E 017°13'0 0.0
2018-Jan-09 14:58N 40°29' E 017°13'0 0.0
2018-Jan-09 14:28N 40°29' E 017°13'0 0.0
2018-Jan-09 13:34N 40°29' E 017°13'0 0.1
2018-Jan-09 13:28N 40°29' E 017°13'0 0.0
2018-Jan-09 12:58N 40°29' E 017°13'0 0.0
2018-Jan-09 12:28N 40°29' E 017°13'0 0.0
2018-Jan-09 11:58N 40°29' E 017°13'0 0.0
2018-Jan-09 11:28N 40°29' E 017°13'0 0.0
2018-Jan-09 10:58N 40°29' E 017°13'0 0.0
2018-Jan-09 10:28N 40°29' E 017°13'0 0.0
2018-Jan-09 09:58N 40°29' E 017°13'0 0.0
2018-Jan-09 09:28N 40°29' E 017°13'0 0.0
2018-Jan-09 08:58N 40°29' E 017°13'0 0.0
2018-Jan-09 08:28N 40°29' E 017°13'0 0.0
2018-Jan-09 07:58N 40°29' E 017°13'0 0.0
2018-Jan-09 07:28N 40°29' E 017°13'0 0.0
2018-Jan-09 06:58N 40°29' E 017°13'0 0.0
2018-Jan-09 06:28N 40°29' E 017°13'0 0.0
2018-Jan-09 05:58N 40°29' E 017°13'0 0.0
2018-Jan-09 05:28N 40°29' E 017°13'0 0.0
2018-Jan-09 04:58N 40°29' E 017°13'0 0.0
2018-Jan-09 04:28N 40°29' E 017°13'0 0.0
2018-Jan-09 03:58N 40°29' E 017°13'0 0.0
2018-Jan-09 03:28N 40°29' E 017°13'  
Track history (hours):
 
Tides and Currents Weather Stations Pressure Air Temp Water Temp Dewpoint Dewpoint Depression Visibility Wind Speed Wind Dir Waves Ship Positions

M.v.golden Bull

Last reported at 2018-Jan-19 03:00 UTC. Time now 2018-Jan-20 21:05 UTC.
Position N 35°57' W 005°42'.

Length 225 m; draft 7.6 m.

Type: Ship. MMSI: 477700600.

Date/timePositionNaut miles runAvg speedWind from/ knotsBaromVisibWave heightAir tempDewpointWater temp
2018-Jan-19 03:00N 35°57' W 005°42'714.5
2018-Jan-19 02:30N 35°58' W 005°33'713.7
2018-Jan-19 02:00N 36°00' W 005°25'611.8
2018-Jan-19 01:30N 36°06' W 005°22'2 3.1
2018-Jan-19 00:59N 36°07' W 005°22'0 0.1
2018-Jan-19 00:29N 36°07' W 005°22'0 0.1
2018-Jan-18 23:59N 36°07' W 005°22'0 0.2
2018-Jan-18 23:29N 36°07' W 005°22'0 0.0
2018-Jan-18 22:59N 36°07' W 005°22'0 0.0
2018-Jan-18 22:29N 36°07' W 005°22'0 0.0
2018-Jan-18 21:59N 36°07' W 005°22'0 0.1
2018-Jan-18 21:29N 36°07' W 005°22'0 0.1
2018-Jan-18 20:59N 36°07' W 005°22'0 0.1
2018-Jan-18 20:29N 36°07' W 005°22'0 0.1
2018-Jan-18 19:59N 36°07' W 005°22'0 0.0
2018-Jan-18 19:26N 36°07' W 005°22'0 0.1
2018-Jan-18 18:59N 36°07' W 005°22'0 0.2
2018-Jan-18 18:29N 36°07' W 005°22'0 0.0
2018-Jan-18 17:59N 36°07' W 005°22'0 0.0
2018-Jan-18 17:29N 36°07' W 005°22'0 0.1
2018-Jan-18 16:59N 36°07' W 005°22'0 0.0
2018-Jan-18 16:29N 36°07' W 005°22'0 0.1
2018-Jan-18 15:59N 36°07' W 005°22'0 0.1
2018-Jan-18 15:30N 36°07' W 005°22'0 1.0
2018-Jan-18 15:00N 36°07' W 005°23'2 4.7
2018-Jan-18 14:30N 36°05' W 005°21'3 6.6
2018-Jan-18 14:00N 36°05' W 005°17'4 8.7
2018-Jan-18 13:30N 36°07' W 005°12'3 5.4
2018-Jan-18 13:00N 36°07' W 005°09'1 1.9
2018-Jan-18 12:30N 36°06' W 005°08'1 1.9
2018-Jan-18 12:00N 36°06' W 005°10'4 8.0
2018-Jan-18 11:30N 36°07' W 005°14'0 0.5
2018-Jan-18 11:00N 36°07' W 005°14'1 2.5
2018-Jan-18 10:30N 36°06' W 005°13'1 2.4
2018-Jan-18 10:00N 36°06' W 005°11'0 0.5
2018-Jan-18 09:30N 36°06' W 005°11'3 6.4
2018-Jan-18 09:00N 36°06' W 005°15'1 1.4
2018-Jan-18 08:30N 36°06' W 005°15'1 1.5
2018-Jan-18 08:00N 36°05' W 005°14'1 1.4
2018-Jan-18 07:30N 36°05' W 005°13'1 1.1
2018-Jan-18 07:00N 36°05' W 005°12'0 1.0
2018-Jan-18 06:30N 36°05' W 005°12'0 0.8
2018-Jan-18 06:00N 36°05' W 005°11'0 0.4
2018-Jan-18 05:30N 36°05' W 005°11'0 0.2
2018-Jan-18 05:00N 36°05' W 005°11'0 0.6
2018-Jan-18 04:30N 36°05' W 005°11'2 4.6
2018-Jan-18 04:00N 36°04' W 005°08'511.1
2018-Jan-18 03:30N 36°04' W 005°01'611.6
2018-Jan-18 03:00N 36°05' W 004°54'612.3
2018-Jan-18 02:30N 36°05' W 004°46'712.9
2018-Jan-18 02:00N 36°06' W 004°38'1212.5
2018-Jan-18 01:04N 36°07' W 004°24'  
2018-Jan-12 14:58N 40°29' E 017°13'0 0.1
2018-Jan-12 14:28N 40°29' E 017°13'0 0.0
2018-Jan-12 13:58N 40°29' E 017°13'0 0.0
2018-Jan-12 13:28N 40°29' E 017°13'0 0.0
2018-Jan-12 12:58N 40°29' E 017°13'0 0.0
2018-Jan-12 12:28N 40°29' E 017°13'0 0.0
2018-Jan-12 11:58N 40°29' E 017°13'0 0.0
2018-Jan-12 11:28N 40°29' E 017°13'0 0.0
2018-Jan-12 10:58N 40°29' E 017°13'0 0.0
2018-Jan-12 10:28N 40°29' E 017°13'0 0.0
2018-Jan-12 09:58N 40°29' E 017°13'0 0.0
2018-Jan-12 09:28N 40°29' E 017°13'0 0.0
2018-Jan-12 08:58N 40°29' E 017°13'0 0.0
2018-Jan-12 08:28N 40°29' E 017°13'0 0.0
2018-Jan-12 07:58N 40°29' E 017°13'0 0.0
2018-Jan-12 07:28N 40°29' E 017°13'0 0.0
2018-Jan-12 06:58N 40°29' E 017°13'0 0.0
2018-Jan-12 06:28N 40°29' E 017°13'0 0.0
2018-Jan-12 05:58N 40°29' E 017°13'0 0.0
2018-Jan-12 05:28N 40°29' E 017°13'0 0.0
2018-Jan-12 04:58N 40°29' E 017°13'0 0.0
2018-Jan-12 04:28N 40°29' E 017°13'0 0.0
2018-Jan-12 03:58N 40°29' E 017°13'0 0.0
2018-Jan-12 03:28N 40°29' E 017°13'0 0.0
2018-Jan-12 02:58N 40°29' E 017°13'0 0.0
2018-Jan-12 02:28N 40°29' E 017°13'0 0.0
2018-Jan-12 01:58N 40°29' E 017°13'0 0.0
2018-Jan-12 01:28N 40°29' E 017°13'0 0.0
2018-Jan-12 00:58N 40°29' E 017°13'0 0.0
2018-Jan-12 00:28N 40°29' E 017°13'0 0.0
2018-Jan-11 23:58N 40°29' E 017°13'0 0.0
2018-Jan-11 23:28N 40°29' E 017°13'0 0.0
2018-Jan-11 22:58N 40°29' E 017°13'0 0.0
2018-Jan-11 22:28N 40°29' E 017°13'0 0.0
2018-Jan-11 21:58N 40°29' E 017°13'0 0.0
2018-Jan-11 21:28N 40°29' E 017°13'0 0.0
2018-Jan-11 20:58N 40°29' E 017°13'0 0.0
2018-Jan-11 20:28N 40°29' E 017°13'0 0.0
2018-Jan-11 19:58N 40°29' E 017°13'0 0.0
2018-Jan-11 19:28N 40°29' E 017°13'0 0.0
2018-Jan-11 18:58N 40°29' E 017°13'0 0.0
2018-Jan-11 18:28N 40°29' E 017°13'0 0.0
2018-Jan-11 17:58N 40°29' E 017°13'0 0.0
2018-Jan-11 17:28N 40°29' E 017°13'0 0.0
2018-Jan-11 16:40N 40°29' E 017°13'0 0.0
2018-Jan-11 16:28N 40°29' E 017°13'0 0.0
2018-Jan-11 15:58N 40°29' E 017°13'0 0.0
2018-Jan-11 15:28N 40°29' E 017°13'0 0.0
2018-Jan-11 14:58N 40°29' E 017°13'0 0.0
2018-Jan-11 14:28N 40°29' E 017°13'0 0.0
2018-Jan-11 13:58N 40°29' E 017°13'0 0.0
2018-Jan-11 13:28N 40°29' E 017°13'0 0.0
2018-Jan-11 12:58N 40°29' E 017°13'0 0.0
2018-Jan-11 12:28N 40°29' E 017°13'0 0.0
2018-Jan-11 11:55N 40°29' E 017°13'0 0.0
2018-Jan-11 11:28N 40°29' E 017°13'0 0.0
2018-Jan-11 10:58N 40°29' E 017°13'0 0.0
2018-Jan-11 10:28N 40°29' E 017°13'0 0.0
2018-Jan-11 09:58N 40°29' E 017°13'0 0.0
2018-Jan-11 09:28N 40°29' E 017°13'0 0.0
2018-Jan-11 08:58N 40°29' E 017°13'0 0.0
2018-Jan-11 08:28N 40°29' E 017°13'0 0.0
2018-Jan-11 07:58N 40°29' E 017°13'0 0.0
2018-Jan-11 07:28N 40°29' E 017°13'0 0.0
2018-Jan-11 06:58N 40°29' E 017°13'0 0.0
2018-Jan-11 06:28N 40°29' E 017°13'0 0.0
2018-Jan-11 05:58N 40°29' E 017°13'0 0.0
2018-Jan-11 05:28N 40°29' E 017°13'0 0.0
2018-Jan-11 04:58N 40°29' E 017°13'0 0.0
2018-Jan-11 04:28N 40°29' E 017°13'0 0.0
2018-Jan-11 03:58N 40°29' E 017°13'0 0.0
2018-Jan-11 03:28N 40°29' E 017°13'0 0.0
2018-Jan-11 02:58N 40°29' E 017°13'0 0.0
2018-Jan-11 02:28N 40°29' E 017°13'0 0.0
2018-Jan-11 01:58N 40°29' E 017°13'0 0.0
2018-Jan-11 01:28N 40°29' E 017°13'0 0.0
2018-Jan-11 00:58N 40°29' E 017°13'0 0.0
2018-Jan-11 00:28N 40°29' E 017°13'0 0.0
2018-Jan-10 23:58N 40°29' E 017°13'0 0.0
2018-Jan-10 23:28N 40°29' E 017°13'0 0.0
2018-Jan-10 22:58N 40°29' E 017°13'0 0.0
2018-Jan-10 22:28N 40°29' E 017°13'0 0.0
2018-Jan-10 21:58N 40°29' E 017°13'0 0.0
2018-Jan-10 21:25N 40°29' E 017°13'0 0.0
2018-Jan-10 20:58N 40°29' E 017°13'0 0.0
2018-Jan-10 20:28N 40°29' E 017°13'0 0.0
2018-Jan-10 19:58N 40°29' E 017°13'0 0.0
2018-Jan-10 19:28N 40°29' E 017°13'0 0.0
2018-Jan-10 18:58N 40°29' E 017°13'0 0.0
2018-Jan-10 18:28N 40°29' E 017°13'0 0.0
2018-Jan-10 17:58N 40°29' E 017°13'0 0.0
2018-Jan-10 17:28N 40°29' E 017°13'0 0.0
2018-Jan-10 16:58N 40°29' E 017°13'0 0.0
2018-Jan-10 16:28N 40°29' E 017°13'0 0.0
2018-Jan-10 15:58N 40°29' E 017°13'0 0.0
2018-Jan-10 15:28N 40°29' E 017°13'0 0.0
2018-Jan-10 14:58N 40°29' E 017°13'0 0.0
2018-Jan-10 14:28N 40°29' E 017°13'0 0.0
2018-Jan-10 13:58N 40°29' E 017°13'0 0.0
2018-Jan-10 13:28N 40°29' E 017°13'0 0.0
2018-Jan-10 12:58N 40°29' E 017°13'0 0.0
2018-Jan-10 12:28N 40°29' E 017°13'0 0.0
2018-Jan-10 11:58N 40°29' E 017°13'0 0.0
2018-Jan-10 11:28N 40°29' E 017°13'0 0.0
2018-Jan-10 10:58N 40°29' E 017°13'0 0.1
2018-Jan-10 10:28N 40°29' E 017°13'0 0.2
2018-Jan-10 09:58N 40°29' E 017°13'0 0.0
2018-Jan-10 09:28N 40°29' E 017°13'0 0.0
2018-Jan-10 08:58N 40°29' E 017°13'0 0.0
2018-Jan-10 08:28N 40°29' E 017°13'0 0.0
2018-Jan-10 07:58N 40°29' E 017°13'0 0.0
2018-Jan-10 07:28N 40°29' E 017°13'0 0.0
2018-Jan-10 06:58N 40°29' E 017°13'0 0.0
2018-Jan-10 06:28N 40°29' E 017°13'0 0.0
2018-Jan-10 05:58N 40°29' E 017°13'0 0.0
2018-Jan-10 05:28N 40°29' E 017°13'0 0.0
2018-Jan-10 04:58N 40°29' E 017°13'0 0.0
2018-Jan-10 04:28N 40°29' E 017°13'0 0.0
2018-Jan-10 03:58N 40°29' E 017°13'0 0.0
2018-Jan-10 03:25N 40°29' E 017°13'0 0.0
2018-Jan-10 02:58N 40°29' E 017°13'0 0.0
2018-Jan-10 02:28N 40°29' E 017°13'0 0.0
2018-Jan-10 01:58N 40°29' E 017°13'0 0.0
2018-Jan-10 01:28N 40°29' E 017°13'0 0.0
2018-Jan-10 00:58N 40°29' E 017°13'0 0.0
2018-Jan-10 00:28N 40°29' E 017°13'0 0.0
2018-Jan-09 23:58N 40°29' E 017°13'0 0.0
2018-Jan-09 23:28N 40°29' E 017°13'0 0.0
2018-Jan-09 22:58N 40°29' E 017°13'0 0.0
2018-Jan-09 22:28N 40°29' E 017°13'0 0.0
2018-Jan-09 21:58N 40°29' E 017°13'0 0.0
2018-Jan-09 21:28N 40°29' E 017°13'0 0.0
2018-Jan-09 20:58N 40°29' E 017°13'0 0.0
2018-Jan-09 20:19N 40°29' E 017°13'0 0.0
2018-Jan-09 19:58N 40°29' E 017°13'0 0.0
2018-Jan-09 19:28N 40°29' E 017°13'0 0.0
2018-Jan-09 18:58N 40°29' E 017°13'0 0.0
2018-Jan-09 18:28N 40°29' E 017°13'0 0.0
2018-Jan-09 17:58N 40°29' E 017°13'0 0.0
2018-Jan-09 17:28N 40°29' E 017°13'0 0.0
2018-Jan-09 16:58N 40°29' E 017°13'0 0.0
2018-Jan-09 16:28N 40°29' E 017°13'0 0.0
2018-Jan-09 15:52N 40°29' E 017°13'0 0.0
2018-Jan-09 15:28N 40°29' E 017°13'0 0.0
2018-Jan-09 14:58N 40°29' E 017°13'0 0.0
2018-Jan-09 14:28N 40°29' E 017°13'0 0.0
2018-Jan-09 13:34N 40°29' E 017°13'0 0.1
2018-Jan-09 13:28N 40°29' E 017°13'0 0.0
2018-Jan-09 12:58N 40°29' E 017°13'0 0.0
2018-Jan-09 12:28N 40°29' E 017°13'0 0.0
2018-Jan-09 11:58N 40°29' E 017°13'0 0.0
2018-Jan-09 11:28N 40°29' E 017°13'0 0.0
2018-Jan-09 10:58N 40°29' E 017°13'0 0.0
2018-Jan-09 10:28N 40°29' E 017°13'0 0.0
2018-Jan-09 09:58N 40°29' E 017°13'0 0.0
2018-Jan-09 09:28N 40°29' E 017°13'0 0.0
2018-Jan-09 08:58N 40°29' E 017°13'0 0.0
2018-Jan-09 08:28N 40°29' E 017°13'0 0.0
2018-Jan-09 07:58N 40°29' E 017°13'0 0.0
2018-Jan-09 07:28N 40°29' E 017°13'0 0.0
2018-Jan-09 06:58N 40°29' E 017°13'0 0.0
2018-Jan-09 06:28N 40°29' E 017°13'0 0.0
2018-Jan-09 05:58N 40°29' E 017°13'0 0.0
2018-Jan-09 05:28N 40°29' E 017°13'0 0.0
2018-Jan-09 04:58N 40°29' E 017°13'0 0.0
2018-Jan-09 04:28N 40°29' E 017°13'0 0.0
2018-Jan-09 03:58N 40°29' E 017°13'0 0.0
2018-Jan-09 03:28N 40°29' E 017°13'  

Dump ship's entire track history